Time;durP1;ratioP1;P1;durP2;ratioP2;P2;SDS_P1;SDS_P2;PMS_P1;PMS_P2;Temp;Humidity;BMP_temperature;BMP_pressure;BME280_temperature;BME280_humidity;BME280_pressure;Samples;Min_cycle;Max_cycle;Signal;HPM_P1;HPM_P2
2022/04/27 00:01:43;;;;;;;7.70;3.30;;;20.80;52.80;;;;;;4996258;28;20047;-56
2022/04/27 00:04:09;;;;;;;6.82;3.63;;;20.80;52.70;;;;;;4996457;28;20052;-56
2022/04/27 00:06:34;;;;;;;7.43;3.33;;;20.70;52.60;;;;;;4995641;28;20665;-56
2022/04/27 00:09:00;;;;;;;6.35;3.20;;;20.70;52.60;;;;;;4996063;28;20553;-56
2022/04/27 00:11:25;;;;;;;6.18;3.28;;;20.70;52.60;;;;;;4995928;28;20136;-56
2022/04/27 00:13:51;;;;;;;5.80;3.00;;;20.70;52.60;;;;;;4995299;28;20050;-56
2022/04/27 00:16:16;;;;;;;7.15;2.90;;;20.70;52.60;;;;;;4996250;28;20402;-56
2022/04/27 00:18:42;;;;;;;7.13;3.25;;;20.70;52.60;;;;;;4995845;28;20047;-55
2022/04/27 00:21:07;;;;;;;6.22;2.90;;;20.70;52.50;;;;;;4995343;28;20042;-56
2022/04/27 00:23:34;;;;;;;7.60;2.78;;;20.70;52.50;;;;;;4995859;28;20074;-55
2022/04/27 00:26:00;;;;;;;5.82;2.92;;;20.70;52.50;;;;;;4995932;28;20066;-56
2022/04/27 00:28:25;;;;;;;6.05;2.90;;;20.70;52.60;;;;;;4995297;28;20038;-56
2022/04/27 00:30:51;;;;;;;5.75;2.88;;;20.60;52.50;;;;;;4995133;28;20137;-56
2022/04/27 00:33:16;;;;;;;5.28;2.97;;;20.60;52.50;;;;;;4995443;28;20050;-55
2022/04/27 00:35:42;;;;;;;6.25;2.97;;;20.60;52.50;;;;;;4994611;28;20049;-56
2022/04/27 00:38:08;;;;;;;5.80;3.22;;;20.60;52.50;;;;;;4995721;28;20043;-55
2022/04/27 00:40:33;;;;;;;4.97;3.22;;;20.60;52.40;;;;;;4995801;28;20053;-56
2022/04/27 00:42:59;;;;;;;5.82;3.20;;;20.60;52.50;;;;;;4994636;28;20053;-56
2022/04/27 00:45:24;;;;;;;4.72;2.50;;;20.60;52.40;;;;;;4995806;28;20042;-56
2022/04/27 00:47:50;;;;;;;4.63;2.38;;;20.60;52.40;;;;;;4995425;28;20052;-56
2022/04/27 00:50:15;;;;;;;6.90;3.08;;;20.60;52.40;;;;;;4994336;28;20039;-56
2022/04/27 00:52:41;;;;;;;6.05;2.70;;;20.50;52.30;;;;;;4995377;28;20046;-55
2022/04/27 00:55:08;;;;;;;5.47;2.50;;;20.60;52.40;;;;;;4994845;28;20046;-56
2022/04/27 00:57:33;;;;;;;6.68;2.70;;;20.50;52.40;;;;;;4995032;28;20046;-56
2022/04/27 00:59:59;;;;;;;3.80;2.40;;;20.50;52.30;;;;;;4995264;28;20054;-55
2022/04/27 01:02:24;;;;;;;8.43;3.20;;;20.50;52.30;;;;;;4994633;28;20054;-56
2022/04/27 01:04:50;;;;;;;5.07;2.70;;;20.50;52.30;;;;;;4994996;28;20050;-56
2022/04/27 01:07:16;;;;;;;4.90;2.30;;;20.50;52.30;;;;;;4993672;28;20038;-57
2022/04/27 01:09:42;;;;;;;4.22;2.40;;;20.50;52.30;;;;;;4994232;28;20127;-55
2022/04/27 01:12:08;;;;;;;5.05;2.53;;;20.50;52.30;;;;;;4994908;28;20113;-56
2022/04/27 01:14:44;;;;;;;5.20;2.60;;;20.50;52.30;;;;;;4995269;28;20046;-56
2022/04/27 01:17:09;;;;;;;4.95;2.53;;;20.50;52.30;;;;;;4994770;28;20120;-56
2022/04/27 01:19:35;;;;;;;5.40;2.70;;;20.50;52.30;;;;;;4994829;28;20502;-55
2022/04/27 01:22:01;;;;;;;4.47;2.35;;;20.40;52.20;;;;;;4994780;28;20046;-55
2022/04/27 01:24:27;;;;;;;5.43;2.35;;;20.40;52.20;;;;;;4993967;28;20046;-56
2022/04/27 01:26:53;;;;;;;6.32;2.70;;;20.40;52.20;;;;;;4994693;28;20084;-55
2022/04/27 01:29:19;;;;;;;5.15;2.78;;;20.40;52.10;;;;;;4994710;28;20046;-56
2022/04/27 01:31:45;;;;;;;5.00;2.20;;;20.40;52.10;;;;;;4993766;28;20497;-58
2022/04/27 01:34:10;;;;;;;3.75;2.13;;;20.40;52.10;;;;;;4994999;28;20073;-56
2022/04/27 01:36:36;;;;;;;4.30;2.47;;;20.40;52.10;;;;;;4994541;28;20077;-56
2022/04/27 01:39:02;;;;;;;4.88;2.25;;;20.40;52.10;;;;;;4993453;28;20152;-56
2022/04/27 01:41:27;;;;;;;5.20;2.63;;;20.40;52.10;;;;;;4994664;28;20042;-55
2022/04/27 01:43:53;;;;;;;3.33;2.08;;;20.40;52.10;;;;;;4994398;28;20130;-55
2022/04/27 01:46:18;;;;;;;4.18;2.05;;;20.40;52.10;;;;;;4993901;28;20065;-56
2022/04/27 01:48:44;;;;;;;5.63;2.40;;;20.30;52.00;;;;;;4994148;28;20410;-56
2022/04/27 01:51:09;;;;;;;4.53;2.13;;;20.30;52.00;;;;;;4994369;28;20046;-55
2022/04/27 01:56:19;;;;;;;4.25;1.90;;;20.30;52.00;;;;;;4992985;28;20050;-55
2022/04/27 01:58:45;;;;;;;5.20;2.17;;;20.30;52.00;;;;;;4993353;28;20463;-55
2022/04/27 02:01:11;;;;;;;3.92;2.35;;;20.30;52.00;;;;;;4994166;28;20108;-56
2022/04/27 02:03:37;;;;;;;4.90;2.50;;;20.30;52.60;;;;;;4994045;28;20066;-55
2022/04/27 02:06:03;;;;;;;3.88;2.53;;;20.30;52.00;;;;;;4992712;28;20050;-55
2022/04/27 02:08:29;;;;;;;5.00;2.08;;;20.30;51.90;;;;;;4994375;28;20161;-56
2022/04/27 02:10:54;;;;;;;5.10;2.33;;;20.30;51.90;;;;;;4993291;28;20045;-56
2022/04/27 02:13:20;;;;;;;3.72;2.17;;;20.30;51.90;;;;;;4993139;28;20038;-56
2022/04/27 02:15:45;;;;;;;5.07;1.90;;;20.30;52.00;;;;;;4993766;28;20130;-56
2022/04/27 02:18:11;;;;;;;4.00;2.22;;;20.20;51.80;;;;;;4993614;28;20042;-56
2022/04/27 02:20:36;;;;;;;4.07;1.80;;;20.20;51.80;;;;;;4992462;28;20054;-56
2022/04/27 02:23:02;;;;;;;4.50;2.00;;;20.20;51.80;;;;;;4993453;28;20121;-56
2022/04/27 02:25:27;;;;;;;4.28;2.25;;;20.20;51.80;;;;;;4993896;28;20470;-55
2022/04/27 02:27:53;;;;;;;3.30;1.88;;;20.20;51.80;;;;;;4992680;28;20035;-56
2022/04/27 02:30:19;;;;;;;4.93;2.33;;;20.20;51.80;;;;;;4993614;28;20046;-56
2022/04/27 02:32:45;;;;;;;3.78;2.08;;;20.20;51.80;;;;;;4993113;28;20162;-56
2022/04/27 02:35:11;;;;;;;4.32;1.92;;;20.20;51.80;;;;;;4992910;28;20104;-56
2022/04/27 02:37:37;;;;;;;3.95;2.05;;;20.20;51.90;;;;;;4993681;28;20046;-56
2022/04/27 02:40:03;;;;;;;3.92;2.03;;;20.20;51.80;;;;;;4993275;28;20084;-55
2022/04/27 02:42:29;;;;;;;4.00;2.25;;;20.20;51.80;;;;;;4992854;28;20095;-55
2022/04/27 02:44:58;;;;;;;4.22;2.05;;;20.20;51.70;;;;;;4993201;28;20050;-55
2022/04/27 02:47:23;;;;;;;3.05;1.88;;;20.20;52.40;;;;;;4993630;28;20076;-55
2022/04/27 02:52:33;;;;;;;4.13;2.13;;;20.20;51.70;;;;;;4993569;28;20046;-56
2022/04/27 02:54:58;;;;;;;4.22;2.30;;;20.20;51.70;;;;;;4992434;28;20042;-56
2022/04/27 02:57:24;;;;;;;3.88;2.10;;;20.20;51.80;;;;;;4993401;28;20042;-56
2022/04/27 02:59:50;;;;;;;5.25;2.22;;;20.20;51.80;;;;;;4992972;28;20086;-56
2022/04/27 03:02:15;;;;;;;4.80;2.15;;;20.20;51.80;;;;;;4992670;28;20050;-55
2022/04/27 03:04:41;;;;;;;3.70;1.70;;;20.20;51.80;;;;;;4992877;28;20046;-56
2022/04/27 03:07:06;;;;;;;4.05;2.17;;;20.20;51.70;;;;;;4992915;28;20047;-55
2022/04/27 03:09:32;;;;;;;3.05;2.15;;;20.20;51.70;;;;;;4992282;28;20046;-56
2022/04/27 03:11:58;;;;;;;4.43;1.98;;;20.20;51.60;;;;;;4992826;28;20498;-56
2022/04/27 03:14:23;;;;;;;3.70;1.85;;;20.20;51.60;;;;;;4993260;28;20050;-57
2022/04/27 03:16:49;;;;;;;4.38;1.80;;;20.20;51.60;;;;;;4991814;28;20045;-56
2022/04/27 03:19:14;;;;;;;3.28;1.75;;;20.20;51.70;;;;;;4993140;28;20050;-56
2022/04/27 03:21:40;;;;;;;3.42;1.83;;;20.20;51.70;;;;;;4992628;28;20105;-56
2022/04/27 03:24:05;;;;;;;3.13;1.90;;;20.20;52.40;;;;;;4992410;28;20042;-55
2022/04/27 03:26:31;;;;;;;3.15;1.75;;;20.30;51.70;;;;;;4992872;28;20050;-56
2022/04/27 03:28:57;;;;;;;3.78;1.90;;;20.20;51.60;;;;;;4991186;28;20057;-55
2022/04/27 03:31:23;;;;;;;3.83;2.08;;;20.20;51.60;;;;;;4994658;28;20050;-55
2022/04/27 03:33:49;;;;;;;3.47;1.95;;;20.30;51.60;;;;;;4996427;28;20072;-56
2022/04/27 03:36:14;;;;;;;3.13;1.90;;;20.20;51.60;;;;;;4997047;28;20058;-56
2022/04/27 03:38:40;;;;;;;3.65;1.90;;;20.30;51.60;;;;;;4996005;28;20066;-56
2022/04/27 03:41:06;;;;;;;5.28;2.22;;;20.30;51.60;;;;;;4996741;28;20517;-56
2022/04/27 03:43:31;;;;;;;4.65;1.88;;;20.30;51.60;;;;;;4996990;28;20042;-56
2022/04/27 03:45:57;;;;;;;3.75;1.70;;;20.30;51.60;;;;;;4995656;28;20042;-56
2022/04/27 03:48:22;;;;;;;3.10;1.77;;;20.30;51.60;;;;;;4995302;28;20086;-56
2022/04/27 03:50:48;;;;;;;3.83;1.92;;;20.30;51.80;;;;;;4996176;28;20052;-56
2022/04/27 03:53:13;;;;;;;3.17;1.80;;;20.30;51.60;;;;;;4996039;28;20042;-55
2022/04/27 03:55:39;;;;;;;3.72;1.77;;;20.30;51.60;;;;;;4995935;28;20078;-56
2022/04/27 03:58:05;;;;;;;3.47;1.90;;;20.30;51.50;;;;;;4995948;28;20142;-55
2022/04/27 04:00:30;;;;;;;2.85;1.52;;;20.30;51.50;;;;;;4994853;28;20395;-56
2022/04/27 04:02:58;;;;;;;3.38;1.67;;;20.30;51.50;;;;;;4991177;28;20053;-55
2022/04/27 04:05:24;;;;;;;1.95;1.30;;;20.30;51.50;;;;;;4995167;28;20050;-55
2022/04/27 04:07:49;;;;;;;3.83;1.98;;;20.30;51.50;;;;;;4995670;28;20057;-56
2022/04/27 04:10:15;;;;;;;2.80;1.70;;;20.30;51.40;;;;;;4996423;28;20077;-55
2022/04/27 04:12:40;;;;;;;3.25;1.70;;;20.30;51.40;;;;;;4995477;28;20466;-56
2022/04/27 04:15:06;;;;;;;4.00;1.90;;;20.30;51.40;;;;;;4996201;28;20492;-55
2022/04/27 04:17:32;;;;;;;2.20;1.55;;;20.30;51.40;;;;;;4996300;28;20046;-56
2022/04/27 04:19:57;;;;;;;3.10;1.50;;;20.30;51.30;;;;;;4995246;28;20405;-61
2022/04/27 04:22:23;;;;;;;3.35;1.70;;;20.30;51.30;;;;;;4996243;28;20426;-56
2022/04/27 04:30:17;;;;;;;2.25;1.30;;;20.30;51.20;;;;;;4996032;28;20133;-56
2022/04/27 04:32:42;;;;;;;2.47;1.50;;;20.40;51.40;;;;;;4995501;28;20479;-56
2022/04/27 04:35:08;;;;;;;2.33;1.40;;;20.40;51.30;;;;;;4995291;28;20171;-55
2022/04/27 04:37:33;;;;;;;3.47;1.80;;;20.30;51.20;;;;;;4995773;28;20053;-56
2022/04/27 04:39:59;;;;;;;2.60;1.80;;;20.30;51.20;;;;;;4995502;28;20395;-56
2022/04/27 04:42:25;;;;;;;2.47;1.58;;;20.30;51.30;;;;;;4994242;28;20125;-55
2022/04/27 04:44:50;;;;;;;2.97;1.42;;;20.30;51.20;;;;;;4995658;28;20051;-56
2022/04/27 04:47:16;;;;;;;2.38;1.38;;;20.30;51.20;;;;;;4995042;28;20089;-56
2022/04/27 04:49:42;;;;;;;2.50;1.27;;;20.30;51.20;;;;;;4995008;28;20494;-55
2022/04/27 04:52:07;;;;;;;2.72;1.65;;;20.30;51.20;;;;;;4995550;28;20474;-56
2022/04/27 04:54:34;;;;;;;3.80;1.60;;;20.30;51.20;;;;;;4994543;28;20058;-56
2022/04/27 04:56:59;;;;;;;2.75;1.60;;;20.30;51.20;;;;;;4994941;28;20117;-56
2022/04/27 04:59:25;;;;;;;3.10;1.58;;;20.30;51.20;;;;;;4995649;28;20133;-56
2022/04/27 05:01:50;;;;;;;3.75;1.90;;;20.40;51.30;;;;;;4994521;28;20161;-56
2022/04/27 05:04:16;;;;;;;2.97;1.60;;;20.40;51.20;;;;;;4995488;28;20053;-55
2022/04/27 05:06:43;;;;;;;1.73;1.30;;;20.30;51.20;;;;;;4994762;28;20549;-56
2022/04/27 05:09:08;;;;;;;3.85;1.40;;;20.40;51.20;;;;;;4994483;28;20142;-56
2022/04/27 05:11:34;;;;;;;2.63;1.42;;;20.40;51.20;;;;;;4994908;28;20846;-55
2022/04/27 05:13:59;;;;;;;2.25;1.30;;;20.40;51.20;;;;;;4995071;28;20050;-56
2022/04/27 05:16:26;;;;;;;1.90;1.30;;;20.40;51.20;;;;;;4994584;28;20051;-55
2022/04/27 05:18:51;;;;;;;2.42;1.63;;;20.40;51.20;;;;;;4994852;28;20050;-56
2022/04/27 05:21:17;;;;;;;2.50;1.45;;;20.40;51.10;;;;;;4994928;28;20380;-56
2022/04/27 05:23:42;;;;;;;1.58;1.17;;;20.50;51.30;;;;;;4993997;28;20092;-56
2022/04/27 05:26:08;;;;;;;2.40;1.30;;;20.50;51.20;;;;;;4994968;28;20049;-56
2022/04/27 05:31:54;;;;;;;2.92;1.30;;;20.50;51.30;;;;;;4994706;28;20137;-56
2022/04/27 05:34:03;;;;;;;2.63;1.40;;;20.50;51.30;;;;;;4994259;28;20097;-56
2022/04/27 05:36:29;;;;;;;2.70;1.45;;;20.50;51.30;;;;;;4994106;28;20046;-56
2022/04/27 05:38:54;;;;;;;2.22;1.45;;;20.50;51.30;;;;;;4994537;28;20395;-56
2022/04/27 05:41:21;;;;;;;2.80;1.40;;;20.50;51.30;;;;;;4994630;28;20058;-56
2022/04/27 05:43:47;;;;;;;2.70;1.40;;;20.50;51.30;;;;;;4993722;28;20035;-56
2022/04/27 05:46:12;;;;;;;3.22;1.60;;;20.50;51.30;;;;;;4994453;28;20491;-55
2022/04/27 05:48:38;;;;;;;2.47;1.20;;;20.50;51.30;;;;;;4994670;28;20057;-56
2022/04/27 05:51:03;;;;;;;2.35;1.50;;;20.50;51.30;;;;;;4993151;28;20134;-55
2022/04/27 05:53:29;;;;;;;3.08;1.60;;;20.60;51.40;;;;;;4983564;28;20043;-55
2022/04/27 05:55:54;;;;;;;2.58;1.25;;;20.60;51.30;;;;;;4991011;28;20078;-55
2022/04/27 05:58:20;;;;;;;3.25;1.48;;;20.60;51.40;;;;;;4993636;28;20502;-56
2022/04/27 06:00:46;;;;;;;3.90;1.50;;;20.60;51.30;;;;;;4993902;28;20104;-56
2022/04/27 06:03:12;;;;;;;2.90;1.13;;;20.60;51.30;;;;;;4993475;28;20046;-55
2022/04/27 06:05:37;;;;;;;3.40;1.52;;;20.60;51.20;;;;;;4993146;28;20046;-56
2022/04/27 06:08:03;;;;;;;2.85;1.20;;;20.70;51.30;;;;;;4994167;28;20168;-56
2022/04/27 06:10:28;;;;;;;2.58;1.40;;;20.70;51.30;;;;;;4993972;28;20050;-56
2022/04/27 06:12:54;;;;;;;3.17;1.55;;;20.70;51.40;;;;;;4993261;28;20120;-56
2022/04/27 06:15:19;;;;;;;3.42;1.63;;;20.70;51.40;;;;;;4993863;28;20505;-56
2022/04/27 06:17:45;;;;;;;3.95;1.35;;;20.70;51.50;;;;;;4993817;28;20500;-56
2022/04/27 06:20:11;;;;;;;3.85;1.30;;;20.70;51.50;;;;;;4993220;28;20053;-57
2022/04/27 06:22:37;;;;;;;2.50;1.40;;;20.70;51.60;;;;;;4994068;28;20034;-57
2022/04/27 06:25:06;;;;;;;3.88;1.40;;;20.70;51.80;;;;;;4993594;28;20053;-56
2022/04/27 06:27:31;;;;;;;3.42;1.20;;;20.80;52.00;;;;;;4993090;28;20038;-56
2022/04/27 06:29:57;;;;;;;3.88;1.20;;;20.80;52.00;;;;;;4993614;28;20553;-57
2022/04/27 06:32:23;;;;;;;4.13;1.45;;;20.80;52.00;;;;;;4993594;28;20430;-57
2022/04/27 06:34:48;;;;;;;9.98;1.90;;;20.80;52.10;;;;;;4993061;28;20049;-57
2022/04/27 06:37:14;;;;;;;3.15;1.45;;;20.80;52.10;;;;;;4993662;28;20045;-56
2022/04/27 06:39:40;;;;;;;4.40;1.42;;;20.80;52.20;;;;;;4993418;28;20112;-57
2022/04/27 06:42:06;;;;;;;3.38;1.60;;;20.80;52.50;;;;;;4992977;28;20100;-56
2022/04/27 06:44:33;;;;;;;3.20;1.10;;;20.90;52.40;;;;;;4993369;28;20050;-56
2022/04/27 06:46:59;;;;;;;3.95;1.40;;;20.90;52.40;;;;;;4992276;28;20472;-56
2022/04/27 06:49:24;;;;;;;5.05;1.60;;;20.90;52.40;;;;;;4993345;28;20470;-56
2022/04/27 06:51:50;;;;;;;5.53;1.40;;;20.90;52.40;;;;;;4993012;28;20050;-57
2022/04/27 06:54:15;;;;;;;4.32;1.40;;;20.90;52.50;;;;;;4992405;28;20042;-56
2022/04/27 06:56:41;;;;;;;2.42;1.30;;;20.90;52.50;;;;;;4992997;28;20189;-56
2022/04/27 06:59:07;;;;;;;2.20;1.08;;;20.90;52.50;;;;;;4993271;28;20031;-56
2022/04/27 07:01:32;;;;;;;2.47;1.25;;;20.90;52.50;;;;;;4992706;28;20475;-57
2022/04/27 07:04:06;;;;;;;3.05;1.20;;;21.00;52.60;;;;;;4993092;28;20867;-58
2022/04/27 07:06:32;;;;;;;4.03;1.60;;;21.00;52.70;;;;;;4991785;28;20045;-57
2022/04/27 07:08:57;;;;;;;5.95;1.45;;;21.00;52.70;;;;;;4983731;28;20413;-56
2022/04/27 07:11:23;;;;;;;4.25;1.42;;;21.00;52.70;;;;;;4989454;28;20486;-56
2022/04/27 07:13:48;;;;;;;3.15;1.15;;;21.00;52.70;;;;;;4989838;28;20053;-57
2022/04/27 07:16:14;;;;;;;4.93;1.30;;;21.00;52.50;;;;;;4992494;28;20035;-57
2022/04/27 07:18:39;;;;;;;4.38;1.52;;;21.00;52.40;;;;;;4993026;28;20053;-57
2022/04/27 07:21:08;;;;;;;2.60;1.40;;;21.00;52.30;;;;;;4993187;28;20042;-57
2022/04/27 07:23:33;;;;;;;5.93;1.48;;;21.00;52.20;;;;;;4977752;28;20045;-56
2022/04/27 07:25:59;;;;;;;4.18;1.63;;;21.00;52.20;;;;;;4983128;28;20062;-56
2022/04/27 07:28:24;;;;;;;4.97;1.40;;;21.00;52.20;;;;;;4981701;28;20101;-56
2022/04/27 07:30:50;;;;;;;2.70;1.38;;;21.10;52.50;;;;;;4982447;28;20071;-56
2022/04/27 07:33:15;;;;;;;4.15;1.13;;;21.10;52.60;;;;;;4982108;28;20410;-57
2022/04/27 07:35:41;;;;;;;3.13;1.55;;;21.10;52.70;;;;;;4983746;28;20058;-56
2022/04/27 07:38:06;;;;;;;2.38;1.33;;;21.10;52.80;;;;;;4989763;28;20046;-57
2022/04/27 07:40:32;;;;;;;3.45;1.40;;;21.10;52.80;;;;;;4992964;28;20042;-56
2022/04/27 07:42:59;;;;;;;4.47;1.58;;;21.10;52.70;;;;;;4992651;28;20038;-57
2022/04/27 07:45:25;;;;;;;3.42;1.30;;;21.10;52.50;;;;;;4991516;28;20047;-57
2022/04/27 07:47:50;;;;;;;5.32;1.50;;;21.10;52.50;;;;;;4973243;28;20042;-57
2022/04/27 07:50:16;;;;;;;3.53;1.50;;;21.20;52.50;;;;;;4972473;28;20077;-56
2022/04/27 07:52:42;;;;;;;3.20;1.48;;;21.20;52.60;;;;;;4981430;28;20046;-57
2022/04/27 07:55:08;;;;;;;4.32;1.30;;;21.20;52.70;;;;;;4993066;28;20479;-56
2022/04/27 07:57:33;;;;;;;6.95;1.42;;;21.20;52.70;;;;;;4992220;28;20037;-57
2022/04/27 08:00:00;;;;;;;4.75;1.45;;;21.20;52.90;;;;;;4992297;28;20046;-57
2022/04/27 08:02:26;;;;;;;5.13;1.50;;;21.20;52.90;;;;;;4992350;28;20078;-56
2022/04/27 08:04:51;;;;;;;3.60;1.60;;;21.20;52.80;;;;;;4991928;28;20129;-56
2022/04/27 08:07:17;;;;;;;4.43;1.35;;;21.20;52.70;;;;;;4992571;28;20054;-56
2022/04/27 08:09:42;;;;;;;3.83;1.40;;;21.30;52.70;;;;;;4984334;28;20499;-59
2022/04/27 08:12:08;;;;;;;6.32;1.30;;;21.30;52.70;;;;;;4991982;28;20043;-57
2022/04/27 08:14:34;;;;;;;5.15;1.48;;;21.20;52.70;;;;;;4992856;28;20098;-56
2022/04/27 08:17:01;;;;;;;4.65;1.48;;;21.30;52.70;;;;;;4992839;28;20050;-56
2022/04/27 08:19:27;;;;;;;6.70;2.00;;;21.30;52.70;;;;;;4995798;28;20050;-57
2022/04/27 08:21:54;;;;;;;6.10;2.35;;;21.30;52.70;;;;;;4995856;28;20133;-57
2022/04/27 08:24:21;;;;;;;5.82;2.38;;;21.30;52.60;;;;;;4996156;28;20389;-57
2022/04/27 08:26:46;;;;;;;6.55;2.17;;;21.30;52.50;;;;;;4995155;28;20054;-57
2022/04/27 08:29:12;;;;;;;9.15;2.42;;;21.30;52.60;;;;;;4995979;28;20034;-57
2022/04/27 08:31:37;;;;;;;10.88;2.47;;;21.30;52.70;;;;;;4990113;28;20376;-57
2022/04/27 08:34:03;;;;;;;8.35;2.38;;;21.30;52.70;;;;;;4977987;28;20051;-57
2022/04/27 08:36:30;;;;;;;5.22;2.47;;;21.30;52.80;;;;;;4982503;28;20058;-57
2022/04/27 08:38:55;;;;;;;4.80;2.65;;;21.40;53.00;;;;;;4994490;28;20046;-58
2022/04/27 08:41:21;;;;;;;7.45;2.83;;;21.40;53.00;;;;;;4992478;28;20371;-57
2022/04/27 08:43:46;;;;;;;8.05;2.63;;;21.40;53.10;;;;;;4994245;28;20076;-57
2022/04/27 08:46:13;;;;;;;5.80;2.42;;;21.50;53.20;;;;;;4993743;28;20046;-57
2022/04/27 08:48:39;;;;;;;6.30;2.60;;;21.50;53.30;;;;;;4992428;28;20046;-55
2022/04/27 08:51:05;;;;;;;7.60;2.20;;;21.50;53.30;;;;;;4991184;28;20560;-55
2022/04/27 08:53:31;;;;;;;6.20;2.45;;;21.50;53.30;;;;;;4993261;28;20042;-55
2022/04/27 08:55:56;;;;;;;5.15;2.28;;;21.50;53.40;;;;;;4992577;28;20044;-55
2022/04/27 08:58:23;;;;;;;5.65;2.75;;;21.50;53.40;;;;;;4994243;28;20042;-55
2022/04/27 09:00:48;;;;;;;5.78;2.35;;;21.60;53.50;;;;;;4992318;28;20081;-55
2022/04/27 09:03:31;;;;;;;6.85;2.40;;;21.60;53.50;;;;;;4993938;28;20128;-55
2022/04/27 09:06:01;;;;;;;7.28;2.53;;;21.60;53.50;;;;;;4991820;28;20038;-55
2022/04/27 09:08:48;;;;;;;5.57;2.45;;;21.60;53.50;;;;;;4992436;28;20053;-55
2022/04/27 09:11:21;;;;;;;8.87;2.27;;;21.60;53.60;;;;;;4992986;28;20375;-55
2022/04/27 09:13:53;;;;;;;5.00;2.55;;;21.60;53.60;;;;;;4993328;28;20337;-55
2022/04/27 09:16:21;;;;;;;5.55;2.42;;;21.60;53.70;;;;;;4992752;28;20051;-55
2022/04/27 09:22:01;;;;;;;6.90;2.25;;;21.60;53.80;;;;;;4991842;28;20046;-55
2022/04/27 09:24:28;;;;;;;4.40;2.20;;;21.60;53.80;;;;;;4992548;28;20046;-55
2022/04/27 09:27:12;;;;;;;5.03;2.42;;;21.60;53.80;;;;;;4992512;28;20093;-58
2022/04/27 09:29:37;;;;;;;4.30;2.30;;;21.60;53.60;;;;;;4989737;28;20065;-57
2022/04/27 09:32:04;;;;;;;7.32;2.83;;;21.60;53.30;;;;;;4992773;28;20403;-58
2022/04/27 09:34:31;;;;;;;4.82;2.58;;;21.60;53.30;;;;;;4994070;28;20077;-57
2022/04/27 09:37:02;;;;;;;11.68;2.50;;;21.60;53.30;;;;;;4975323;28;20050;-57
2022/04/27 09:39:28;;;;;;;6.80;2.58;;;21.60;53.20;;;;;;4992359;28;20074;-57
2022/04/27 09:41:53;;;;;;;4.82;2.22;;;21.60;53.30;;;;;;4992863;28;20116;-58
2022/04/27 09:44:29;;;;;;;3.70;2.20;;;21.60;53.40;;;;;;4997825;28;20042;-58
2022/04/27 09:46:55;;;;;;;5.60;2.45;;;21.60;53.50;;;;;;4991408;28;20053;-57
2022/04/27 09:49:20;;;;;;;8.10;2.10;;;21.60;53.50;;;;;;4991291;28;20042;-57
2022/04/27 09:51:50;;;;;;;3.88;1.98;;;21.60;53.50;;;;;;4990277;28;20034;-57
2022/04/27 09:54:28;;;;;;;5.13;2.38;;;21.60;53.70;;;;;;4991301;28;20038;-57
2022/04/27 09:56:57;;;;;;;5.20;2.30;;;21.60;53.70;;;;;;4990374;28;20038;-57
2022/04/27 09:59:29;;;;;;;4.97;2.45;;;21.60;53.70;;;;;;4991687;28;20061;-58
2022/04/27 10:01:59;;;;;;;4.68;2.08;;;21.60;53.80;;;;;;4991591;28;20108;-57
2022/04/27 10:04:28;;;;;;;3.90;1.88;;;21.60;53.80;;;;;;4991203;28;20082;-57
2022/04/27 10:06:59;;;;;;;7.15;2.25;;;21.60;53.80;;;;;;4992427;28;20046;-57
2022/04/27 10:09:26;;;;;;;5.30;1.92;;;21.60;53.30;;;;;;4992180;28;20112;-57
2022/04/27 10:11:53;;;;;;;5.37;2.00;;;21.50;53.00;;;;;;4991142;28;20050;-57
2022/04/27 10:14:18;;;;;;;4.50;2.05;;;21.60;53.00;;;;;;4991674;28;20780;-57
2022/04/27 10:16:44;;;;;;;4.43;1.90;;;21.60;52.60;;;;;;4990146;28;20038;-57
2022/04/27 10:19:10;;;;;;;5.53;2.25;;;21.50;52.40;;;;;;4991349;28;20086;-57
2022/04/27 10:21:56;;;;;;;8.88;2.22;;;21.50;52.40;;;;;;4991851;28;20120;-57
2022/04/27 10:24:34;;;;;;;4.78;2.08;;;21.50;52.30;;;;;;4992098;28;20046;-55
2022/04/27 10:27:22;;;;;;;4.43;1.90;;;21.50;52.30;;;;;;4990912;28;20101;-55
2022/04/27 10:29:57;;;;;;;3.55;1.70;;;21.50;52.40;;;;;;4990075;28;20046;-55
2022/04/27 10:32:42;;;;;;;3.65;1.77;;;21.50;52.40;;;;;;4991221;28;20082;-56
2022/04/27 10:35:29;;;;;;;4.05;1.90;;;21.50;52.60;;;;;;4991741;28;20050;-55
2022/04/27 10:38:02;;;;;;;4.43;2.10;;;21.50;52.60;;;;;;4990112;28;20577;-55
2022/04/27 10:40:34;;;;;;;6.18;2.03;;;21.50;52.70;;;;;;4986628;28;20046;-55
2022/04/27 10:43:01;;;;;;;5.10;2.25;;;21.60;52.70;;;;;;4990900;28;20046;-56
2022/04/27 10:45:27;;;;;;;4.65;1.90;;;21.50;52.70;;;;;;4987447;28;20409;-56
2022/04/27 10:47:52;;;;;;;6.90;2.40;;;21.60;52.80;;;;;;4989557;28;20042;-55
2022/04/27 10:50:20;;;;;;;3.95;1.75;;;21.60;52.90;;;;;;4996718;28;20046;-57
2022/04/27 10:52:51;;;;;;;4.13;1.75;;;21.60;53.00;;;;;;4991559;28;20125;-57
2022/04/27 10:55:34;;;;;;;4.25;1.98;;;21.60;52.90;;;;;;4988855;28;20041;-59
2022/04/27 10:58:28;;;;;;;3.75;1.80;;;21.60;52.80;;;;;;4993239;28;20112;-58
2022/04/27 11:01:02;;;;;;;6.53;1.73;;;21.60;52.90;;;;;;4991097;28;20144;-57
2022/04/27 11:03:32;;;;;;;3.63;1.70;;;21.60;52.80;;;;;;4993219;28;20049;-57
2022/04/27 11:06:11;;;;;;;3.97;1.92;;;21.60;52.80;;;;;;4993057;28;20042;-57
2022/04/27 11:08:52;;;;;;;4.38;1.92;;;21.60;52.80;;;;;;4992717;28;20049;-57
2022/04/27 11:11:18;;;;;;;3.67;1.52;;;21.60;52.80;;;;;;4992978;28;20073;-57
2022/04/27 11:13:43;;;;;;;6.25;1.80;;;21.60;52.90;;;;;;4993138;28;20414;-57
2022/04/27 11:16:10;;;;;;;3.80;2.13;;;21.60;53.00;;;;;;4975051;28;20089;-57
2022/04/27 11:18:51;;;;;;;5.28;1.88;;;21.60;53.00;;;;;;4993579;28;20427;-57
2022/04/27 11:21:20;;;;;;;3.72;2.00;;;21.60;53.10;;;;;;4992449;28;20062;-58
2022/04/27 11:23:45;;;;;;;3.72;1.70;;;21.60;53.10;;;;;;4990790;28;20034;-57
2022/04/27 11:26:11;;;;;;;7.50;1.80;;;21.60;52.90;;;;;;4989828;28;20503;-54
2022/04/27 11:28:39;;;;;;;3.40;1.95;;;21.60;52.90;;;;;;4990394;28;20046;-55
2022/04/27 11:31:05;;;;;;;3.90;1.98;;;21.60;53.00;;;;;;4991771;28;20125;-55
2022/04/27 11:33:31;;;;;;;5.28;1.80;;;21.60;53.00;;;;;;4990808;28;20185;-55
2022/04/27 11:35:57;;;;;;;3.63;1.90;;;21.60;53.20;;;;;;4991979;28;20153;-55
2022/04/27 11:38:32;;;;;;;4.05;1.80;;;21.60;53.30;;;;;;4993151;28;20490;-55
2022/04/27 11:40:57;;;;;;;5.68;2.08;;;21.60;53.30;;;;;;4991729;28;20057;-55
2022/04/27 11:43:24;;;;;;;4.82;1.70;;;21.60;53.40;;;;;;4990155;28;20043;-55
2022/04/27 11:45:50;;;;;;;2.53;1.35;;;21.60;53.50;;;;;;4981699;28;20486;-56
2022/04/27 11:48:18;;;;;;;3.40;1.63;;;21.60;53.50;;;;;;4975191;28;20046;-56
2022/04/27 11:50:44;;;;;;;4.03;1.73;;;21.60;53.60;;;;;;4972081;28;20459;-56
2022/04/27 11:53:13;;;;;;;3.55;1.60;;;21.60;53.70;;;;;;4976284;28;20074;-55
2022/04/27 11:55:39;;;;;;;3.55;1.73;;;21.60;53.80;;;;;;4976756;28;20490;-56
2022/04/27 11:58:05;;;;;;;3.53;1.60;;;21.70;54.00;;;;;;4959457;28;20082;-55
2022/04/27 12:00:31;;;;;;;4.20;1.83;;;21.70;54.00;;;;;;4977411;28;20054;-56
2022/04/27 12:03:05;;;;;;;3.10;1.23;;;21.70;54.10;;;;;;4976754;28;20395;-55
2022/04/27 12:05:32;;;;;;;3.17;1.90;;;21.70;54.20;;;;;;4976457;28;20466;-55
2022/04/27 12:07:58;;;;;;;3.40;1.53;;;21.70;54.30;;;;;;4977003;28;20038;-56
2022/04/27 12:10:24;;;;;;;5.28;1.75;;;21.70;54.30;;;;;;4975982;28;20734;-55
2022/04/27 12:12:49;;;;;;;4.50;1.60;;;21.70;54.30;;;;;;4976834;28;20471;-55
2022/04/27 12:15:15;;;;;;;2.95;1.58;;;21.80;54.40;;;;;;4977061;28;20122;-55
2022/04/27 12:17:44;;;;;;;4.13;1.75;;;21.80;54.50;;;;;;4974775;28;20415;-55
2022/04/27 12:20:11;;;;;;;5.72;1.65;;;21.80;54.50;;;;;;4976842;28;20043;-55
2022/04/27 12:22:37;;;;;;;2.17;1.30;;;21.80;54.50;;;;;;4976675;28;20510;-55
2022/04/27 12:25:05;;;;;;;2.63;1.73;;;21.80;54.50;;;;;;4974124;28;20130;-55
2022/04/27 12:27:30;;;;;;;2.67;1.45;;;21.80;54.50;;;;;;4976959;28;20117;-55
2022/04/27 12:30:06;;;;;;;2.63;1.52;;;21.80;54.50;;;;;;4974933;28;20146;-55
2022/04/27 12:32:32;;;;;;;3.25;1.63;;;21.90;54.70;;;;;;4975812;28;20054;-55
2022/04/27 12:37:49;;;;;;;3.17;1.63;;;21.90;54.70;;;;;;4976393;28;20078;-55
2022/04/27 12:40:15;;;;;;;3.08;1.42;;;21.90;54.70;;;;;;4975877;28;20081;-55
2022/04/27 12:43:05;;;;;;;3.95;1.75;;;21.90;54.80;;;;;;4976320;28;20073;-55
2022/04/27 12:45:30;;;;;;;3.38;1.60;;;22.00;54.80;;;;;;4975639;28;20047;-56
2022/04/27 12:47:56;;;;;;;1.63;1.10;;;22.00;54.60;;;;;;4975781;28;20039;-55
2022/04/27 12:50:21;;;;;;;3.95;1.80;;;22.00;54.90;;;;;;4975044;28;20074;-55
2022/04/27 12:52:47;;;;;;;2.80;1.40;;;22.00;53.80;;;;;;4977676;28;20369;-56
2022/04/27 12:55:13;;;;;;;3.65;1.52;;;22.00;53.70;;;;;;4991355;28;20046;-56
2022/04/27 12:57:54;;;;;;;4.28;1.60;;;22.00;53.60;;;;;;4995494;28;20046;-58
2022/04/27 13:00:48;;;;;;;2.58;1.25;;;22.00;53.60;;;;;;4994798;28;20050;-56
2022/04/27 13:03:14;;;;;;;9.23;3.10;;;22.00;53.60;;;;;;4990536;28;20086;-56
2022/04/27 13:05:41;;;;;;;4.13;1.92;;;22.00;54.00;;;;;;4994661;28;20461;-57